Time;durP1;ratioP1;P1;durP2;ratioP2;P2;SDS_P1;SDS_P2;PMS_P1;PMS_P2;Temp;Humidity;BMP_temperature;BMP_pressure;BME280_temperature;BME280_humidity;BME280_pressure;Samples;Min_cycle;Max_cycle;Signal;HPM_P1;HPM_P2
2022/05/23 00:01:18;;;;;;;3.00;1.55;;;18.40;99.90;;;;;;5054948;28;20637;-62
2022/05/23 00:03:44;;;;;;;3.45;1.38;;;18.30;99.90;;;;;;5054920;28;20211;-62
2022/05/23 00:06:13;;;;;;;2.35;1.40;;;18.30;99.90;;;;;;5054428;28;20583;-62
2022/05/23 00:08:41;;;;;;;2.80;1.60;;;18.30;99.90;;;;;;5054896;28;20256;-62
2022/05/23 00:11:08;;;;;;;1.45;1.30;;;18.30;99.90;;;;;;5054757;28;20752;-62
2022/05/23 00:13:34;;;;;;;4.10;1.40;;;18.20;99.90;;;;;;5054429;28;20271;-63
2022/05/23 00:16:01;;;;;;;1.55;1.38;;;18.20;99.90;;;;;;5054366;28;20267;-63
2022/05/23 00:18:28;;;;;;;1.52;1.38;;;18.20;99.90;;;;;;5054279;28;20704;-62
2022/05/23 00:20:55;;;;;;;2.15;1.30;;;18.20;99.90;;;;;;5054513;28;20599;-62
2022/05/23 00:23:22;;;;;;;3.58;1.40;;;18.20;99.90;;;;;;5054340;28;20622;-63
2022/05/23 00:25:50;;;;;;;3.38;1.50;;;18.20;99.90;;;;;;5053857;28;20321;-63
2022/05/23 00:28:17;;;;;;;2.28;1.40;;;18.20;99.90;;;;;;5054185;28;20690;-62
2022/05/23 00:30:45;;;;;;;2.78;1.40;;;18.10;99.90;;;;;;5054133;28;20587;-63
2022/05/23 00:35:57;;;;;;;2.85;1.65;;;18.00;99.90;;;;;;5053833;28;20808;-62
2022/05/23 00:38:24;;;;;;;1.75;1.33;;;18.00;99.90;;;;;;5053808;28;20222;-62
2022/05/23 00:43:39;;;;;;;3.00;1.65;;;18.10;99.90;;;;;;5053058;28;20202;-62
2022/05/23 00:46:06;;;;;;;3.35;1.17;;;18.00;99.90;;;;;;5053756;28;20209;-62
2022/05/23 00:48:33;;;;;;;7.15;1.60;;;18.00;99.90;;;;;;5053303;28;20206;-62
2022/05/23 00:51:03;;;;;;;2.90;1.73;;;18.00;99.90;;;;;;5053731;28;20206;-62
2022/05/23 00:53:35;;;;;;;3.00;1.42;;;17.90;99.90;;;;;;5054140;28;20205;-62
2022/05/23 00:56:07;;;;;;;1.90;1.50;;;18.00;99.90;;;;;;5053472;28;20209;-62
2022/05/23 00:58:40;;;;;;;3.20;1.48;;;18.00;99.90;;;;;;5053543;28;20225;-62
2022/05/23 01:01:11;;;;;;;2.42;1.45;;;18.00;99.90;;;;;;5053499;28;20255;-62
2022/05/23 01:03:38;;;;;;;1.67;1.40;;;17.90;99.90;;;;;;5053264;28;20210;-62
2022/05/23 01:06:07;;;;;;;2.70;1.52;;;17.90;99.90;;;;;;5053128;28;20205;-62
2022/05/23 01:08:35;;;;;;;1.60;1.50;;;17.80;99.90;;;;;;5053569;28;20202;-61
2022/05/23 01:11:04;;;;;;;2.20;1.50;;;17.80;99.90;;;;;;5053553;28;20209;-61
2022/05/23 01:13:31;;;;;;;5.45;1.60;;;17.80;99.90;;;;;;5053424;28;20536;-61
2022/05/23 01:15:58;;;;;;;2.33;1.63;;;17.70;99.90;;;;;;5052833;28;20213;-63
2022/05/23 01:18:25;;;;;;;3.50;1.80;;;17.70;99.90;;;;;;5053233;28;20225;-62
2022/05/23 01:20:56;;;;;;;1.63;1.50;;;17.70;99.90;;;;;;5053352;28;20626;-64
2022/05/23 01:23:33;;;;;;;2.75;1.60;;;17.70;99.90;;;;;;5053236;28;20209;-63
2022/05/23 01:26:02;;;;;;;1.70;1.60;;;17.70;99.90;;;;;;5052994;28;20457;-62
2022/05/23 01:28:33;;;;;;;2.45;1.40;;;17.60;99.90;;;;;;5052899;28;20201;-62
2022/05/23 01:31:00;;;;;;;1.60;1.42;;;17.60;99.90;;;;;;5053246;28;20297;-63
2022/05/23 01:33:27;;;;;;;1.92;1.55;;;17.60;99.90;;;;;;5053139;28;20260;-62
2022/05/23 01:35:53;;;;;;;3.78;1.58;;;17.50;99.90;;;;;;5052682;28;20234;-62
2022/05/23 01:38:20;;;;;;;2.72;1.48;;;17.60;99.90;;;;;;5052935;28;20225;-63
2022/05/23 01:40:47;;;;;;;3.58;1.65;;;17.60;99.90;;;;;;5052809;28;20206;-63
2022/05/23 01:43:15;;;;;;;2.95;1.60;;;17.60;99.90;;;;;;5052643;28;20219;-63
2022/05/23 01:45:43;;;;;;;3.22;1.60;;;17.60;99.90;;;;;;5052621;28;20316;-62
2022/05/23 01:48:09;;;;;;;2.28;1.50;;;17.60;99.90;;;;;;5052712;28;20209;-62
2022/05/23 01:50:37;;;;;;;2.28;1.52;;;17.50;99.90;;;;;;5052493;28;20213;-63
2022/05/23 01:53:03;;;;;;;2.10;1.70;;;17.50;99.90;;;;;;5052637;28;20213;-62
2022/05/23 01:55:30;;;;;;;3.10;1.90;;;17.50;99.90;;;;;;5052282;28;20236;-62
2022/05/23 01:57:57;;;;;;;1.75;1.50;;;17.60;99.90;;;;;;5052838;28;20225;-62
2022/05/23 02:03:10;;;;;;;2.25;1.60;;;17.50;99.90;;;;;;5053276;28;20263;-62
2022/05/23 02:05:38;;;;;;;3.13;1.83;;;17.50;99.90;;;;;;5052837;28;20221;-63
2022/05/23 02:08:05;;;;;;;3.15;1.60;;;17.40;99.90;;;;;;5052702;28;20197;-63
2022/05/23 02:10:32;;;;;;;2.92;1.90;;;17.40;99.90;;;;;;5052459;28;20206;-63
2022/05/23 02:13:02;;;;;;;5.40;1.80;;;17.40;99.90;;;;;;5052897;28;20212;-63
2022/05/23 02:15:32;;;;;;;4.78;2.05;;;17.40;99.90;;;;;;5053725;28;20731;-62
2022/05/23 02:18:00;;;;;;;2.63;1.70;;;17.40;99.90;;;;;;5056266;28;20237;-62
2022/05/23 02:20:27;;;;;;;1.85;1.33;;;17.40;99.90;;;;;;5054687;28;20209;-63
2022/05/23 02:22:54;;;;;;;1.95;1.60;;;17.30;99.90;;;;;;5052201;28;20296;-63
2022/05/23 02:25:21;;;;;;;1.95;1.67;;;17.30;99.90;;;;;;5052257;28;20232;-61
2022/05/23 02:27:47;;;;;;;4.05;1.77;;;17.30;99.90;;;;;;5052181;28;20597;-64
2022/05/23 02:30:14;;;;;;;5.50;1.73;;;17.20;99.90;;;;;;5051954;28;20218;-63
2022/05/23 02:32:45;;;;;;;1.70;1.50;;;17.20;99.90;;;;;;5052191;28;20649;-62
2022/05/23 02:35:12;;;;;;;5.27;1.73;;;17.20;99.90;;;;;;5051936;28;20481;-62
2022/05/23 02:37:39;;;;;;;2.40;1.50;;;17.30;99.90;;;;;;5051740;28;20584;-62
2022/05/23 02:40:07;;;;;;;3.35;1.55;;;17.20;99.90;;;;;;5052069;28;20206;-63
2022/05/23 02:42:33;;;;;;;2.50;2.30;;;17.30;99.90;;;;;;5051953;28;20205;-62
2022/05/23 02:45:00;;;;;;;4.72;1.70;;;17.30;99.90;;;;;;5051484;28;20294;-62
2022/05/23 02:47:27;;;;;;;2.50;1.58;;;17.30;99.90;;;;;;5051687;28;20683;-63
2022/05/23 02:49:55;;;;;;;3.07;2.10;;;17.30;99.90;;;;;;5051890;28;20228;-62
2022/05/23 02:52:22;;;;;;;6.13;1.80;;;17.30;99.90;;;;;;5052237;28;20217;-64
2022/05/23 02:54:48;;;;;;;2.90;1.73;;;17.30;99.90;;;;;;5051657;28;20233;-64
2022/05/23 02:57:15;;;;;;;2.67;1.50;;;17.20;99.90;;;;;;5051684;28;20216;-62
2022/05/23 02:59:42;;;;;;;2.60;1.50;;;17.10;99.90;;;;;;5051632;28;20229;-64
2022/05/23 03:04:53;;;;;;;2.57;1.70;;;17.20;99.90;;;;;;5051468;28;20537;-63
2022/05/23 03:07:21;;;;;;;3.60;1.60;;;17.20;99.90;;;;;;5051966;28;20206;-62
2022/05/23 03:09:47;;;;;;;3.20;1.73;;;17.20;99.90;;;;;;5053775;28;20251;-63
2022/05/23 03:12:14;;;;;;;2.73;1.73;;;17.20;99.90;;;;;;5057822;28;20635;-63
2022/05/23 03:14:41;;;;;;;3.07;1.90;;;17.20;99.90;;;;;;5056815;28;20253;-63
2022/05/23 03:17:08;;;;;;;2.93;1.90;;;17.30;99.90;;;;;;5056450;28;20622;-62
2022/05/23 03:19:37;;;;;;;4.03;2.13;;;17.30;99.90;;;;;;5055550;28;20320;-62
2022/05/23 03:27:35;;;;;;;2.97;1.48;;;17.40;99.90;;;;;;5055550;28;20207;-63
2022/05/23 03:30:02;;;;;;;4.93;1.98;;;17.50;99.90;;;;;;5055543;28;20201;-63
2022/05/23 03:32:29;;;;;;;4.13;2.10;;;17.60;99.90;;;;;;5055519;28;20212;-62
2022/05/23 03:34:56;;;;;;;3.30;1.85;;;17.60;99.90;;;;;;5055109;28;20230;-63
2022/05/23 03:37:23;;;;;;;2.85;1.80;;;17.50;99.90;;;;;;5055208;28;20282;-63
2022/05/23 03:39:51;;;;;;;3.38;1.63;;;17.60;99.90;;;;;;5054978;28;20228;-64
2022/05/23 03:42:18;;;;;;;2.72;1.70;;;17.60;99.90;;;;;;5055367;28;20480;-64
2022/05/23 03:44:45;;;;;;;5.13;1.75;;;17.70;99.90;;;;;;5054744;28;20320;-61
2022/05/23 03:47:12;;;;;;;3.05;2.00;;;17.70;99.90;;;;;;5055064;28;20275;-63
2022/05/23 03:49:38;;;;;;;3.92;1.90;;;17.80;99.90;;;;;;5054911;28;20275;-62
2022/05/23 03:52:05;;;;;;;3.80;2.00;;;17.90;99.90;;;;;;5054743;28;20210;-62
2022/05/23 03:54:32;;;;;;;3.22;1.65;;;17.90;99.90;;;;;;5054851;28;20574;-62
2022/05/23 03:57:01;;;;;;;4.85;1.83;;;17.90;99.90;;;;;;5054664;28;20205;-62
2022/05/23 03:59:29;;;;;;;3.35;1.77;;;17.90;99.90;;;;;;5054793;28;20240;-62
2022/05/23 04:01:57;;;;;;;2.10;1.52;;;18.00;99.90;;;;;;5054593;28;20220;-63
2022/05/23 04:04:24;;;;;;;2.67;1.98;;;18.10;99.90;;;;;;5054420;28;20748;-62
2022/05/23 04:06:51;;;;;;;4.45;1.83;;;18.20;99.90;;;;;;5054227;28;20210;-62
2022/05/23 04:09:18;;;;;;;1.83;1.40;;;18.30;99.90;;;;;;5055069;28;20213;-62
2022/05/23 04:11:45;;;;;;;4.68;1.83;;;18.30;99.90;;;;;;5054513;28;20205;-62
2022/05/23 04:14:14;;;;;;;4.22;2.20;;;18.40;99.90;;;;;;5054620;28;20238;-62
2022/05/23 04:16:45;;;;;;;3.53;1.88;;;18.50;99.90;;;;;;5054253;28;20213;-62
2022/05/23 04:19:12;;;;;;;12.68;3.10;;;18.60;99.90;;;;;;5054346;28;20275;-63
2022/05/23 04:21:40;;;;;;;7.07;2.95;;;18.70;99.90;;;;;;5053943;28;20214;-62
2022/05/23 04:24:08;;;;;;;6.03;2.33;;;18.60;99.90;;;;;;5054351;28;20249;-61
2022/05/23 04:26:35;;;;;;;8.98;2.60;;;18.50;99.90;;;;;;5054305;28;20431;-62
2022/05/23 04:29:02;;;;;;;6.38;2.67;;;18.40;99.90;;;;;;5054131;28;20205;-62
2022/05/23 04:31:30;;;;;;;3.75;2.50;;;18.10;99.90;;;;;;5054160;28;20229;-62
2022/05/23 04:36:41;;;;;;;4.72;2.67;;;17.80;99.90;;;;;;5053796;28;20204;-62
2022/05/23 04:39:08;;;;;;;14.85;2.67;;;17.80;99.90;;;;;;5053948;28;20320;-62
2022/05/23 04:41:35;;;;;;;8.85;2.92;;;17.80;99.90;;;;;;5053874;28;20279;-62
2022/05/23 04:44:02;;;;;;;3.15;2.80;;;17.80;99.90;;;;;;5053934;28;20275;-62
2022/05/23 04:46:30;;;;;;;5.15;3.15;;;17.80;99.90;;;;;;5053395;28;20206;-63
2022/05/23 04:51:41;;;;;;;7.63;3.47;;;17.90;99.90;;;;;;5054085;28;20433;-64
2022/05/23 04:54:08;;;;;;;7.78;3.38;;;17.90;99.90;;;;;;5053638;28;20295;-62
2022/05/23 04:56:37;;;;;;;10.05;3.60;;;17.90;99.90;;;;;;5053432;28;20347;-61
2022/05/23 04:59:04;;;;;;;5.60;2.92;;;17.90;99.90;;;;;;5053411;28;20715;-62
2022/05/23 05:01:32;;;;;;;5.55;3.05;;;17.90;99.90;;;;;;5053516;28;20239;-62
2022/05/23 05:03:59;;;;;;;7.72;3.15;;;17.80;99.90;;;;;;5053371;28;20226;-62
2022/05/23 05:06:26;;;;;;;5.38;3.30;;;17.70;99.90;;;;;;5053372;28;20205;-62
2022/05/23 05:08:53;;;;;;;6.70;3.45;;;17.60;99.90;;;;;;5053564;28;20202;-64
2022/05/23 05:11:20;;;;;;;13.10;3.97;;;17.50;99.90;;;;;;5053393;28;20325;-62
2022/05/23 05:13:46;;;;;;;6.13;3.35;;;17.40;99.90;;;;;;5053738;28;20216;-62
2022/05/23 05:16:13;;;;;;;6.15;3.10;;;17.30;99.90;;;;;;5053977;28;20298;-63
2022/05/23 05:18:41;;;;;;;5.03;3.30;;;17.20;99.90;;;;;;5053887;28;20500;-62
2022/05/23 05:21:11;;;;;;;6.67;3.27;;;17.00;99.90;;;;;;5053266;28;20209;-62
2022/05/23 05:23:38;;;;;;;5.95;3.30;;;16.90;99.90;;;;;;5053084;28;20202;-61
2022/05/23 05:26:06;;;;;;;6.50;3.10;;;16.80;99.90;;;;;;5052912;28;20210;-62
2022/05/23 05:28:32;;;;;;;5.80;3.30;;;16.70;99.90;;;;;;5053399;28;20205;-63
2022/05/23 05:31:04;;;;;;;6.82;3.67;;;16.70;99.90;;;;;;5053446;28;20237;-62
2022/05/23 05:33:35;;;;;;;5.55;3.22;;;16.90;99.90;;;;;;5051815;28;20612;-62
2022/05/23 05:36:07;;;;;;;4.80;3.00;;;17.00;99.90;;;;;;5052732;28;20209;-63
2022/05/23 05:38:38;;;;;;;4.20;3.53;;;17.20;99.90;;;;;;5052711;28;20251;-62
2022/05/23 05:41:09;;;;;;;4.82;3.00;;;17.40;99.90;;;;;;5053042;28;20259;-62
2022/05/23 05:43:40;;;;;;;3.95;2.72;;;17.50;99.90;;;;;;5052762;28;20255;-62
2022/05/23 05:46:13;;;;;;;4.75;2.60;;;17.60;99.90;;;;;;5052395;28;20665;-62
2022/05/23 05:48:41;;;;;;;8.50;2.90;;;17.70;99.90;;;;;;5052514;28;20233;-62
2022/05/23 05:51:10;;;;;;;4.53;2.60;;;17.70;99.90;;;;;;5052385;28;20212;-62
2022/05/23 05:53:37;;;;;;;3.83;2.60;;;17.80;99.90;;;;;;5052411;28;20343;-62
2022/05/23 05:56:05;;;;;;;4.90;2.65;;;17.90;99.90;;;;;;5052190;28;20206;-61
2022/05/23 05:58:33;;;;;;;4.03;2.60;;;17.90;99.90;;;;;;5052178;28;20206;-62
2022/05/23 06:01:00;;;;;;;7.30;3.13;;;17.90;99.90;;;;;;5052318;28;20201;-61
2022/05/23 06:03:27;;;;;;;11.13;2.45;;;17.90;99.90;;;;;;5052223;28;20212;-62
2022/05/23 06:11:26;;;;;;;4.68;2.88;;;17.90;99.90;;;;;;5052138;28;20208;-62
2022/05/23 06:13:56;;;;;;;5.00;2.75;;;17.80;99.90;;;;;;5051826;28;20256;-61
2022/05/23 06:16:23;;;;;;;5.15;2.70;;;17.70;99.90;;;;;;5052091;28;20332;-61
2022/05/23 06:18:50;;;;;;;3.45;2.63;;;17.60;99.90;;;;;;5051981;28;20670;-62
2022/05/23 06:21:17;;;;;;;3.72;2.55;;;17.60;99.90;;;;;;5052289;28;20216;-61
2022/05/23 06:23:47;;;;;;;2.65;2.20;;;17.90;99.90;;;;;;5052362;28;20621;-62
2022/05/23 06:26:15;;;;;;;3.10;2.65;;;18.40;99.90;;;;;;5051690;28;20201;-61
2022/05/23 06:28:42;;;;;;;6.03;2.45;;;18.70;99.90;;;;;;5051874;28;20292;-61
2022/05/23 06:31:09;;;;;;;4.18;2.50;;;18.70;99.90;;;;;;5051765;28;20564;-62
2022/05/23 06:33:37;;;;;;;3.78;2.58;;;18.80;99.90;;;;;;5051980;28;20243;-62
2022/05/23 06:36:04;;;;;;;4.05;2.40;;;18.90;99.90;;;;;;5051626;28;20328;-61
2022/05/23 06:38:31;;;;;;;3.97;2.53;;;19.00;99.90;;;;;;5053276;28;20630;-61
2022/05/23 06:40:59;;;;;;;3.88;2.42;;;19.10;99.90;;;;;;5051616;28;20229;-61
2022/05/23 06:43:26;;;;;;;3.65;2.58;;;19.50;99.90;;;;;;5051787;28;20213;-62
2022/05/23 06:45:52;;;;;;;4.45;2.72;;;20.40;99.90;;;;;;5050896;28;20229;-62
2022/05/23 06:48:19;;;;;;;2.92;2.08;;;21.00;99.90;;;;;;5051561;28;20209;-62
2022/05/23 06:50:49;;;;;;;4.72;2.63;;;21.10;99.90;;;;;;5051402;28;20618;-61
2022/05/23 06:53:15;;;;;;;3.85;2.20;;;21.10;99.90;;;;;;5051470;28;20268;-62
2022/05/23 06:55:42;;;;;;;3.33;2.28;;;21.10;99.90;;;;;;5051055;28;20237;-62
2022/05/23 06:58:11;;;;;;;3.03;2.50;;;21.50;99.90;;;;;;5051620;28;20247;-61
2022/05/23 07:00:38;;;;;;;3.22;2.33;;;22.00;99.90;;;;;;5051571;28;20221;-60
2022/05/23 07:03:05;;;;;;;4.25;2.45;;;22.30;99.90;;;;;;5051711;28;20232;-63
2022/05/23 07:14:00;;;;;;;3.17;2.40;;;22.60;99.90;;;;;;5030743;28;20229;-64
2022/05/23 07:16:28;;;;;;;6.20;2.85;;;22.70;99.90;;;;;;5029568;28;20210;-62
2022/05/23 07:18:56;;;;;;;4.07;2.38;;;23.10;99.90;;;;;;5030585;28;20206;-63
2022/05/23 07:21:24;;;;;;;5.82;2.28;;;23.70;99.90;;;;;;5029508;28;20206;-65
2022/05/23 07:23:51;;;;;;;3.40;2.33;;;24.60;99.90;;;;;;5036405;28;20614;-63
2022/05/23 07:26:19;;;;;;;4.82;2.05;;;25.80;99.90;;;;;;5048239;28;20210;-61
2022/05/23 07:28:46;;;;;;;4.25;2.10;;;26.90;99.90;;;;;;5049920;28;20243;-65
2022/05/23 07:31:16;;;;;;;4.18;2.03;;;27.90;99.90;;;;;;5050873;28;20232;-65
2022/05/23 07:33:43;;;;;;;2.30;1.83;;;28.80;98.80;;;;;;5051229;28;20209;-65
2022/05/23 07:36:11;;;;;;;2.95;2.00;;;29.30;97.00;;;;;;5050424;28;20233;-63
2022/05/23 07:38:38;;;;;;;3.55;2.00;;;29.20;95.20;;;;;;5050327;28;20332;-66
2022/05/23 07:41:06;;;;;;;3.10;1.85;;;28.70;95.10;;;;;;5050315;28;20229;-63
2022/05/23 07:43:35;;;;;;;3.88;1.80;;;28.20;95.70;;;;;;5050365;28;20209;-62
2022/05/23 07:46:08;;;;;;;3.67;1.92;;;27.80;96.10;;;;;;5050716;28;20290;-61
2022/05/23 07:48:36;;;;;;;3.03;2.03;;;27.20;96.60;;;;;;5050853;28;20583;-60
2022/05/23 07:51:03;;;;;;;3.60;2.05;;;26.40;98.40;;;;;;5050452;28;20213;-61
2022/05/23 08:01:43;;;;;;;6.35;2.20;;;25.00;99.90;;;;;;5054290;28;20205;-60
2022/05/23 08:04:11;;;;;;;3.92;1.70;;;25.20;99.90;;;;;;5053351;28;20294;-60
2022/05/23 08:06:38;;;;;;;4.18;1.85;;;26.10;99.40;;;;;;5053403;28;20217;-60
2022/05/23 08:09:05;;;;;;;4.57;1.98;;;27.10;96.80;;;;;;5053648;28;20208;-59
2022/05/23 08:11:31;;;;;;;4.57;1.70;;;27.40;95.80;;;;;;5053741;28;20206;-60
2022/05/23 08:13:58;;;;;;;2.58;2.10;;;27.30;95.70;;;;;;5053380;28;20241;-60
2022/05/23 08:16:25;;;;;;;2.03;1.73;;;27.10;95.70;;;;;;5053338;28;20202;-63
2022/05/23 08:18:52;;;;;;;3.03;1.98;;;26.90;95.90;;;;;;5053005;28;20220;-62
2022/05/23 08:21:20;;;;;;;4.55;2.10;;;26.70;96.50;;;;;;5053382;28;20925;-60
2022/05/23 08:23:47;;;;;;;4.10;2.20;;;26.20;97.60;;;;;;5053264;28;20213;-63
2022/05/23 08:26:14;;;;;;;3.78;2.00;;;26.60;96.90;;;;;;5053121;28;20213;-64
2022/05/23 08:28:41;;;;;;;2.67;1.73;;;27.00;96.50;;;;;;5053361;28;20650;-65
2022/05/23 08:31:07;;;;;;;3.92;1.95;;;27.00;96.50;;;;;;5053699;28;20201;-64
2022/05/23 08:33:34;;;;;;;2.42;1.80;;;26.70;96.90;;;;;;5052911;28;20206;-61
2022/05/23 08:36:01;;;;;;;3.90;1.95;;;26.50;97.30;;;;;;5053387;28;20256;-67
2022/05/23 08:38:29;;;;;;;3.65;2.00;;;26.30;98.10;;;;;;5051751;28;20209;-62
2022/05/23 08:41:06;;;;;;;4.38;2.00;;;25.70;99.00;;;;;;5052685;28;20226;-62
2022/05/23 08:43:50;;;;;;;4.15;2.08;;;25.10;99.90;;;;;;5052715;28;20243;-65
2022/05/23 08:46:22;;;;;;;4.13;1.92;;;24.80;99.90;;;;;;5053194;28;20225;-62
2022/05/23 08:48:58;;;;;;;6.85;2.17;;;24.80;99.90;;;;;;5054957;28;20251;-62
2022/05/23 08:51:29;;;;;;;7.43;1.95;;;24.70;99.90;;;;;;5053089;28;20639;-67
2022/05/23 08:54:06;;;;;;;4.18;2.00;;;24.20;99.90;;;;;;5053197;28;20244;-64
2022/05/23 08:56:39;;;;;;;6.07;2.10;;;24.10;99.90;;;;;;5052101;28;20716;-64
2022/05/23 08:59:15;;;;;;;4.97;2.00;;;23.70;99.90;;;;;;5053424;28;20237;-63
2022/05/23 09:01:48;;;;;;;5.82;2.08;;;23.30;99.90;;;;;;5053137;28;20221;-63
2022/05/23 09:04:25;;;;;;;4.30;2.10;;;23.20;99.90;;;;;;5053499;28;20236;-63
2022/05/23 09:06:52;;;;;;;3.65;1.90;;;23.20;99.90;;;;;;5052870;28;20729;-62
2022/05/23 09:09:23;;;;;;;3.80;2.60;;;23.10;99.90;;;;;;5053015;28;20208;-62
2022/05/23 09:11:54;;;;;;;3.28;2.10;;;23.10;99.90;;;;;;5053505;28;20210;-63
2022/05/23 09:14:21;;;;;;;4.90;2.10;;;23.20;99.90;;;;;;5053269;28;20268;-62
2022/05/23 09:16:50;;;;;;;6.40;2.58;;;23.40;99.90;;;;;;5052899;28;20594;-63
2022/05/23 09:19:21;;;;;;;3.03;2.10;;;23.30;99.90;;;;;;5053006;28;20251;-63
2022/05/23 09:24:39;;;;;;;4.68;2.00;;;23.10;99.90;;;;;;5053413;28;20221;-63
2022/05/23 09:27:13;;;;;;;3.92;2.30;;;23.00;99.90;;;;;;5052950;28;20701;-63
2022/05/23 09:29:40;;;;;;;2.20;1.83;;;23.20;99.90;;;;;;5052815;28;20206;-63
2022/05/23 09:32:10;;;;;;;6.32;2.20;;;23.60;99.90;;;;;;5053185;28;20284;-63
2022/05/23 09:34:45;;;;;;;2.67;1.75;;;24.00;99.90;;;;;;5052667;28;20237;-63
2022/05/23 09:37:19;;;;;;;6.18;2.28;;;24.20;99.90;;;;;;5052725;28;20612;-63
2022/05/23 09:39:54;;;;;;;3.40;2.17;;;24.40;99.90;;;;;;5052586;28;20281;-63
2022/05/23 09:48:10;;;;;;;2.90;1.92;;;25.20;99.90;;;;;;5052876;28;20656;-63
2022/05/23 09:50:39;;;;;;;4.05;2.38;;;25.60;99.90;;;;;;5052413;28;20201;-64
2022/05/23 09:53:20;;;;;;;4.05;2.17;;;25.70;99.90;;;;;;5052827;28;20206;-64
2022/05/23 09:55:49;;;;;;;3.13;1.92;;;25.70;99.90;;;;;;5052653;28;20769;-64
2022/05/23 09:58:27;;;;;;;5.90;2.38;;;26.00;99.90;;;;;;5052658;28;20220;-64
2022/05/23 10:01:04;;;;;;;4.18;2.20;;;26.20;99.90;;;;;;5052494;28;20230;-64
2022/05/23 10:03:32;;;;;;;6.25;2.60;;;26.40;99.90;;;;;;5052807;28;20263;-64
2022/05/23 10:06:05;;;;;;;3.85;2.35;;;26.80;99.90;;;;;;5052249;28;20247;-64
2022/05/23 10:08:35;;;;;;;3.58;2.13;;;27.30;99.90;;;;;;5052640;28;20206;-64
2022/05/23 10:11:06;;;;;;;4.03;2.10;;;27.60;99.90;;;;;;5052417;28;20197;-63
2022/05/23 10:13:35;;;;;;;4.45;1.98;;;27.70;99.90;;;;;;5052410;28;20209;-64
2022/05/23 10:16:11;;;;;;;5.40;2.70;;;28.00;99.90;;;;;;5052438;28;20484;-64
2022/05/23 10:18:47;;;;;;;4.63;2.15;;;28.40;98.70;;;;;;5052290;28;20755;-64
2022/05/23 10:21:24;;;;;;;5.82;2.65;;;28.70;97.80;;;;;;5051864;28;20637;-64
2022/05/23 10:24:00;;;;;;;6.03;2.30;;;28.70;97.50;;;;;;5051976;28;20213;-65
2022/05/23 10:26:30;;;;;;;4.07;2.17;;;28.80;97.40;;;;;;5052120;28;20213;-64
2022/05/23 10:29:02;;;;;;;4.38;1.90;;;28.90;97.00;;;;;;5052120;28;20637;-64
2022/05/23 10:31:33;;;;;;;6.30;2.83;;;28.90;97.00;;;;;;5051585;28;20099;-64
2022/05/23 10:34:05;;;;;;;5.43;2.40;;;29.10;96.70;;;;;;5047629;28;20236;-66
2022/05/23 10:36:32;;;;;;;3.85;2.28;;;29.30;96.00;;;;;;5050565;28;20206;-66
2022/05/23 10:42:09;;;;;;;2.58;2.10;;;29.80;94.80;;;;;;5052896;28;20340;-64
2022/05/23 10:44:46;;;;;;;3.25;2.15;;;29.90;94.90;;;;;;5052972;28;20236;-66
2022/05/23 10:47:27;;;;;;;3.83;2.30;;;29.80;95.20;;;;;;5052281;28;20586;-66
2022/05/23 10:50:00;;;;;;;6.35;2.35;;;29.70;95.60;;;;;;5052516;28;20205;-65
2022/05/23 10:52:37;;;;;;;5.10;2.15;;;29.80;95.30;;;;;;5051762;28;20217;-66
2022/05/23 10:55:13;;;;;;;5.13;2.50;;;29.80;95.60;;;;;;5050978;28;20538;-65
2022/05/23 10:57:55;;;;;;;4.82;2.50;;;29.70;95.30;;;;;;5050994;28;20214;-64
2022/05/23 11:00:28;;;;;;;6.47;2.47;;;29.50;95.20;;;;;;5051779;28;20256;-65
2022/05/23 11:03:07;;;;;;;5.75;3.75;;;29.40;95.50;;;;;;5051923;28;20209;-66
2022/05/23 11:05:41;;;;;;;4.85;3.42;;;29.30;95.90;;;;;;5052048;28;20275;-66
2022/05/23 11:08:24;;;;;;;5.47;3.40;;;29.20;95.90;;;;;;5052143;28;20210;-64
2022/05/23 11:10:55;;;;;;;6.75;2.92;;;29.10;96.20;;;;;;5051532;28;20606;-64
2022/05/23 11:13:37;;;;;;;9.30;2.88;;;29.10;96.20;;;;;;5051969;28;20603;-66
2022/05/23 11:16:13;;;;;;;5.22;2.70;;;29.20;95.90;;;;;;5058599;22;20748;-64
2022/05/23 11:19:00;;;;;;;9.57;3.05;;;29.20;95.20;;;;;;5032448;28;20202;-63
2022/05/23 11:21:33;;;;;;;5.35;2.75;;;29.00;95.60;;;;;;5032510;28;20233;-63
2022/05/23 11:24:06;;;;;;;5.63;2.47;;;28.60;96.00;;;;;;5032316;28;20735;-63
2022/05/23 11:26:39;;;;;;;5.90;2.70;;;28.30;96.90;;;;;;5011984;28;20206;-63
2022/05/23 11:34:50;;;;;;;13.00;4.53;;;26.90;99.90;;;;;;5016585;28;20225;-63
2022/05/23 11:40:08;;;;;;;9.48;3.38;;;25.80;99.90;;;;;;5016504;28;20201;-63
2022/05/23 11:42:43;;;;;;;7.65;3.67;;;25.20;99.90;;;;;;5016674;28;20217;-63
2022/05/23 11:48:35;;;;;;;8.55;3.95;;;24.50;99.90;;;;;;5005092;28;20293;-63
2022/05/23 11:51:11;;;;;;;7.30;4.07;;;24.20;99.90;;;;;;5016024;28;20210;-63
2022/05/23 11:53:42;;;;;;;11.70;4.75;;;23.90;99.90;;;;;;5015760;28;20206;-66
2022/05/23 11:56:10;;;;;;;7.72;4.47;;;23.80;99.90;;;;;;5015588;28;20227;-63
2022/05/23 11:58:48;;;;;;;6.72;4.50;;;23.70;99.90;;;;;;5015586;28;20218;-64
2022/05/23 12:01:26;;;;;;;10.10;4.50;;;23.70;99.90;;;;;;5015604;28;20338;-63
2022/05/23 12:04:23;;;;;;;7.72;4.35;;;23.70;99.90;;;;;;5015634;28;20651;-63
2022/05/23 12:06:50;;;;;;;6.40;3.83;;;23.70;99.90;;;;;;5015625;28;20217;-63
2022/05/23 12:09:27;;;;;;;8.20;4.00;;;23.80;99.90;;;;;;5015703;28;20218;-62
2022/05/23 12:12:46;;;;;;;6.57;3.70;;;23.90;99.90;;;;;;5015250;28;20220;-62
2022/05/23 12:15:47;;;;;;;9.70;4.80;;;23.80;99.90;;;;;;5015104;28;20325;-63
2022/05/23 12:18:32;;;;;;;6.38;3.20;;;23.80;99.90;;;;;;5015284;28;20210;-63
2022/05/23 12:21:01;;;;;;;9.68;3.63;;;23.50;99.90;;;;;;5015291;28;20595;-62
2022/05/23 12:23:34;;;;;;;5.75;3.20;;;23.30;99.90;;;;;;5015325;28;20210;-63
2022/05/23 12:26:24;;;;;;;5.72;2.53;;;23.20;99.90;;;;;;5014844;28;20316;-63
2022/05/23 12:28:54;;;;;;;4.55;2.72;;;22.70;99.90;;;;;;5014790;28;20485;-63
2022/05/23 12:31:21;;;;;;;8.55;3.30;;;22.30;99.90;;;;;;5014861;28;20207;-63
2022/05/23 12:33:53;;;;;;;7.70;3.28;;;21.90;99.90;;;;;;5014871;28;20207;-63
2022/05/23 12:36:25;;;;;;;9.75;2.67;;;21.20;99.90;;;;;;5014504;28;20227;-62
2022/05/23 12:39:26;;;;;;;8.20;3.10;;;20.40;99.90;;;;;;5014507;28;20210;-62
2022/05/23 12:42:07;;;;;;;5.20;2.97;;;19.80;99.90;;;;;;5014525;28;20551;-61
2022/05/23 12:45:01;;;;;;;5.63;3.28;;;19.30;99.90;;;;;;5014057;28;20230;-62
2022/05/23 12:47:49;;;;;;;7.03;3.15;;;19.10;99.90;;;;;;5014201;28;20580;-62
2022/05/23 12:50:25;;;;;;;7.15;3.20;;;19.10;99.90;;;;;;5014729;28;20686;-63
2022/05/23 12:53:28;;;;;;;4.65;2.83;;;19.20;99.90;;;;;;5014720;28;20211;-63
2022/05/23 12:56:11;;;;;;;5.93;2.70;;;19.30;99.90;;;;;;5014043;28;20237;-62
2022/05/23 12:59:03;;;;;;;5.38;2.78;;;19.60;99.90;;;;;;5014307;28;20207;-59
2022/05/23 13:01:33;;;;;;;5.07;2.88;;;20.00;99.90;;;;;;5014184;28;20227;-59
2022/05/23 13:04:08;;;;;;;5.95;2.88;;;20.50;99.90;;;;;;5008118;28;20207;-62
2022/05/23 13:06:42;;;;;;;7.72;2.95;;;20.90;99.90;;;;;;5011288;28;20557;-61
2022/05/23 13:09:14;;;;;;;4.22;2.58;;;21.30;99.90;;;;;;5013298;28;20207;-63
2022/05/23 13:11:44;;;;;;;3.83;2.42;;;21.70;99.90;;;;;;5013291;28;20214;-61
2022/05/23 13:14:11;;;;;;;7.90;2.80;;;22.20;99.90;;;;;;5012433;28;20249;-62
2022/05/23 13:16:39;;;;;;;13.18;3.03;;;22.70;99.90;;;;;;5012688;28;20250;-62
2022/05/23 13:22:08;;;;;;;6.88;2.38;;;23.70;99.90;;;;;;5013428;28;20312;-64
2022/05/23 13:24:53;;;;;;;9.40;2.63;;;24.10;99.90;;;;;;5013035;28;20234;-63
2022/05/23 13:27:22;;;;;;;7.18;2.55;;;24.50;99.90;;;;;;5012623;28;20269;-61
2022/05/23 13:29:54;;;;;;;5.45;2.72;;;24.80;99.90;;;;;;5012942;28;20230;-61
2022/05/23 13:32:20;;;;;;;5.18;2.30;;;25.10;99.90;;;;;;5013224;28;20207;-61
2022/05/23 13:34:49;;;;;;;7.60;2.67;;;25.40;99.90;;;;;;5013309;28;20230;-61
2022/05/23 13:37:34;;;;;;;4.07;2.15;;;25.60;99.90;;;;;;5013043;28;20212;-61
2022/05/23 13:40:08;;;;;;;6.43;2.47;;;25.70;99.90;;;;;;5013501;28;20223;-62
2022/05/23 13:42:35;;;;;;;7.18;3.53;;;25.70;99.90;;;;;;5012220;28;20549;-63
2022/05/23 13:45:13;;;;;;;6.13;2.47;;;25.70;99.90;;;;;;5012703;28;20238;-63
2022/05/23 13:47:43;;;;;;;7.32;2.80;;;25.90;99.90;;;;;;5011071;28;20616;-63
2022/05/23 13:50:16;;;;;;;7.47;2.50;;;26.20;99.90;;;;;;5007256;28;20239;-63
2022/05/23 13:52:49;;;;;;;7.90;2.15;;;26.50;99.90;;;;;;5010734;28;20199;-62
2022/05/23 13:55:22;;;;;;;7.25;2.50;;;26.60;99.90;;;;;;5010258;28;20411;-62
2022/05/23 13:57:53;;;;;;;8.13;2.67;;;26.70;99.90;;;;;;5012443;28;20297;-60
2022/05/23 14:00:23;;;;;;;5.93;2.38;;;26.60;99.90;;;;;;5011575;28;20264;-63
2022/05/23 14:02:54;;;;;;;6.13;2.40;;;26.40;99.90;;;;;;5012291;28;20229;-64
2022/05/23 14:05:23;;;;;;;8.52;2.15;;;26.30;99.90;;;;;;5011916;28;20623;-63
2022/05/23 14:07:52;;;;;;;8.68;2.25;;;26.30;99.90;;;;;;5011885;28;20645;-63
2022/05/23 14:10:22;;;;;;;5.45;2.35;;;26.20;99.90;;;;;;5012280;28;20737;-64
2022/05/23 14:12:50;;;;;;;7.68;2.15;;;26.20;99.90;;;;;;5011886;28;20222;-64